createdAt,value
2023-03-24T00:01:39.624Z,17.16
2023-03-24T00:04:09.221Z,17.17
2023-03-24T00:06:38.681Z,17.15
2023-03-24T00:09:08.048Z,17.17
2023-03-24T00:11:38.090Z,17.14
2023-03-24T00:14:07.374Z,17.15
2023-03-24T00:16:38.638Z,17.14
2023-03-24T00:19:07.935Z,17.14
2023-03-24T00:21:37.777Z,17.14
2023-03-24T00:24:08.980Z,17.15
2023-03-24T00:26:40.327Z,17.14
2023-03-24T00:29:14.142Z,17.14
2023-03-24T00:31:43.711Z,17.14
2023-03-24T00:34:13.728Z,17.13
2023-03-24T00:36:43.079Z,17.14
2023-03-24T00:39:12.774Z,17.14
2023-03-24T00:41:44.378Z,17.12
2023-03-24T00:44:16.723Z,17.12
2023-03-24T00:46:49.454Z,17.13
2023-03-24T00:49:20.830Z,17.12
2023-03-24T00:51:51.253Z,17.13
2023-03-24T00:54:22.203Z,17.12
2023-03-24T00:56:54.205Z,17.12
2023-03-24T00:59:23.545Z,17.12
2023-03-24T01:01:52.864Z,17.11
2023-03-24T01:04:24.721Z,17.11
2023-03-24T01:06:56.277Z,17.13
2023-03-24T01:09:26.210Z,17.12
2023-03-24T01:11:56.154Z,17.11
2023-03-24T01:14:25.684Z,17.11
2023-03-24T01:16:55.915Z,17.12
2023-03-24T01:19:25.575Z,17.11
2023-03-24T01:21:55.032Z,17.12
2023-03-24T01:24:25.566Z,17.10
2023-03-24T01:26:54.861Z,17.12
2023-03-24T01:29:24.135Z,17.11
2023-03-24T01:31:53.501Z,17.11
2023-03-24T01:34:23.349Z,17.11
2023-03-24T01:36:52.652Z,17.11
2023-03-24T01:39:22.801Z,17.11
2023-03-24T01:41:52.320Z,17.10
2023-03-24T01:44:28.241Z,17.10
2023-03-24T01:46:58.424Z,17.09
2023-03-24T01:49:31.615Z,17.10
2023-03-24T01:52:03.220Z,17.10
2023-03-24T01:54:41.660Z,17.10
2023-03-24T01:57:34.022Z,17.10
2023-03-24T02:00:06.822Z,17.10
2023-03-24T02:03:03.452Z,17.10
2023-03-24T02:05:36.545Z,17.11
2023-03-24T02:08:07.037Z,17.07
2023-03-24T02:10:37.759Z,17.10
2023-03-24T02:13:09.941Z,17.10
2023-03-24T02:15:46.049Z,17.11
2023-03-24T02:18:36.934Z,17.09
2023-03-24T02:21:24.735Z,17.08
2023-03-24T02:24:18.418Z,17.07
2023-03-24T02:26:58.306Z,17.08
2023-03-24T02:29:51.053Z,17.07
2023-03-24T02:32:32.459Z,17.07
2023-03-24T02:35:11.120Z,17.07
2023-03-24T02:38:09.594Z,17.08
2023-03-24T02:40:48.341Z,17.07
2023-03-24T02:43:24.436Z,17.07
2023-03-24T02:45:59.924Z,17.07
2023-03-24T02:48:44.321Z,17.06
2023-03-24T02:51:23.208Z,17.07
2023-03-24T02:54:16.945Z,17.06
2023-03-24T02:57:01.959Z,17.05
2023-03-24T02:59:44.282Z,17.06
2023-03-24T03:02:33.445Z,17.05
2023-03-24T03:05:21.181Z,17.05
2023-03-24T03:07:51.999Z,17.03
2023-03-24T03:10:24.266Z,17.03
2023-03-24T03:12:56.836Z,17.03
2023-03-24T03:15:29.742Z,17.02
2023-03-24T03:18:08.017Z,17.02
2023-03-24T03:20:42.161Z,17.03
2023-03-24T03:23:14.262Z,17.02
2023-03-24T03:25:49.472Z,17.02
2023-03-24T03:28:22.215Z,17.02
2023-03-24T03:30:55.316Z,17.02
2023-03-24T03:33:43.178Z,17.02
2023-03-24T03:36:21.789Z,17.02
2023-03-24T03:39:00.556Z,17.01
2023-03-24T03:41:30.267Z,17.00
2023-03-24T03:43:59.731Z,16.99
2023-03-24T03:46:29.966Z,17.00
2023-03-24T03:48:59.885Z,17.01
2023-03-24T03:51:29.542Z,17.01
2023-03-24T03:54:01.352Z,16.99
2023-03-24T03:56:34.446Z,16.99
2023-03-24T03:59:27.147Z,16.98
2023-03-24T04:01:57.023Z,16.98
2023-03-24T04:05:05.680Z,16.98
2023-03-24T04:07:35.219Z,16.98
2023-03-24T04:10:23.963Z,16.96
2023-03-24T04:13:14.036Z,16.97
2023-03-24T04:16:39.669Z,16.97
2023-03-24T04:19:19.842Z,16.96
2023-03-24T04:22:03.013Z,16.96
2023-03-24T04:24:54.821Z,16.95
2023-03-24T04:28:02.080Z,16.96
2023-03-24T04:30:40.393Z,16.94
2023-03-24T04:33:35.228Z,16.96
2023-03-24T04:36:07.874Z,16.95
2023-03-24T04:38:38.960Z,16.92
2023-03-24T04:41:14.103Z,16.95
2023-03-24T04:43:44.689Z,16.94
2023-03-24T04:46:15.854Z,16.95
2023-03-24T04:48:49.872Z,16.95
2023-03-24T04:51:28.784Z,16.94
2023-03-24T04:54:15.356Z,16.94
2023-03-24T04:56:51.420Z,16.94
2023-03-24T04:59:22.707Z,16.94
2023-03-24T05:01:52.426Z,16.93
2023-03-24T05:04:31.158Z,16.93
2023-03-24T05:07:03.910Z,16.93
2023-03-24T05:09:33.571Z,16.92
2023-03-24T05:12:03.838Z,16.92
2023-03-24T05:14:34.859Z,16.93
2023-03-24T05:17:06.166Z,16.93
2023-03-24T05:19:36.487Z,16.93
2023-03-24T05:22:06.415Z,16.92
2023-03-24T05:24:35.973Z,16.92
2023-03-24T05:27:05.624Z,16.93
2023-03-24T05:29:35.386Z,16.92
2023-03-24T05:32:05.106Z,16.90
2023-03-24T05:34:34.445Z,16.92
2023-03-24T05:37:09.883Z,16.91
2023-03-24T05:39:39.133Z,16.92
2023-03-24T05:42:10.539Z,16.91
2023-03-24T05:44:39.862Z,16.91
2023-03-24T05:47:12.923Z,16.90
2023-03-24T05:49:43.904Z,16.91
2023-03-24T05:52:16.041Z,16.91
2023-03-24T05:54:48.885Z,16.91
2023-03-24T05:57:21.249Z,16.90
2023-03-24T05:59:55.861Z,16.89
2023-03-24T06:02:43.702Z,16.90
2023-03-24T06:05:14.922Z,16.90
2023-03-24T06:07:45.205Z,16.89
2023-03-24T06:10:16.355Z,16.90
2023-03-24T06:12:47.511Z,16.90
2023-03-24T06:15:17.989Z,16.90
2023-03-24T06:17:50.369Z,16.90
2023-03-24T06:20:24.217Z,16.91
2023-03-24T06:23:00.049Z,16.92
2023-03-24T06:25:31.333Z,16.93
2023-03-24T06:28:04.401Z,16.92
2023-03-24T06:30:34.648Z,16.93
2023-03-24T06:33:07.067Z,16.92
2023-03-24T06:35:36.760Z,16.94
2023-03-24T06:38:08.103Z,16.93
2023-03-24T06:40:39.140Z,16.93
2023-03-24T06:43:09.308Z,16.92
2023-03-24T06:45:40.363Z,16.93
2023-03-24T06:48:11.703Z,16.94
2023-03-24T06:50:41.359Z,16.94
2023-03-24T06:53:12.459Z,16.95
2023-03-24T06:55:42.392Z,16.96
2023-03-24T06:58:12.720Z,16.96
2023-03-24T07:00:44.523Z,16.96
2023-03-24T07:03:17.621Z,16.97
2023-03-24T07:05:48.734Z,16.96
2023-03-24T07:10:52.475Z,16.98
2023-03-24T07:13:22.056Z,16.97
2023-03-24T07:15:53.332Z,16.97
2023-03-24T07:18:22.726Z,16.91
2023-03-24T07:20:53.771Z,16.98
2023-03-24T07:23:25.615Z,16.98
2023-03-24T07:25:56.651Z,16.96
2023-03-24T07:28:43.922Z,16.98
2023-03-24T07:31:13.987Z,16.96
2023-03-24T07:33:44.021Z,16.98
2023-03-24T07:36:13.313Z,17.02
2023-03-24T07:38:42.803Z,17.15
2023-03-24T07:41:13.836Z,17.29
2023-03-24T07:43:45.466Z,17.33
2023-03-24T07:46:22.242Z,17.31
2023-03-24T07:48:52.193Z,17.28
2023-03-24T07:51:22.131Z,17.28
2023-03-24T07:53:59.705Z,17.30
2023-03-24T07:56:36.679Z,17.29
2023-03-24T07:59:07.820Z,17.26
2023-03-24T08:01:57.629Z,17.26
2023-03-24T08:04:28.544Z,17.21
2023-03-24T08:07:00.184Z,17.24
2023-03-24T08:09:30.520Z,17.24
2023-03-24T08:12:04.359Z,17.25
2023-03-24T08:14:30.827Z,17.24
2023-03-24T08:17:00.185Z,17.24
2023-03-24T08:19:29.651Z,17.21
2023-03-24T08:21:58.963Z,17.20
2023-03-24T08:24:28.613Z,17.21
2023-03-24T08:26:59.992Z,17.21
2023-03-24T08:29:29.262Z,17.17
2023-03-24T08:31:58.844Z,17.18
2023-03-24T08:34:28.703Z,17.19
2023-03-24T08:36:58.028Z,17.17
2023-03-24T08:39:28.109Z,17.18
2023-03-24T08:41:57.588Z,17.19
2023-03-24T08:44:27.160Z,17.19
2023-03-24T08:46:56.872Z,17.20
2023-03-24T08:49:26.165Z,17.19
2023-03-24T08:51:55.678Z,17.18
2023-03-24T08:54:26.434Z,17.19
2023-03-24T08:56:56.157Z,17.19
2023-03-24T08:59:25.617Z,17.18
2023-03-24T09:01:55.286Z,17.19
2023-03-24T09:04:24.589Z,17.17
2023-03-24T09:06:55.595Z,17.18
2023-03-24T09:09:25.554Z,17.20
2023-03-24T09:11:54.874Z,17.19
2023-03-24T09:14:24.470Z,17.19
2023-03-24T09:16:53.945Z,17.19
2023-03-24T09:19:26.452Z,17.18
2023-03-24T09:21:56.171Z,17.17
2023-03-24T09:24:25.441Z,17.19
2023-03-24T09:26:54.858Z,17.19
2023-03-24T09:29:24.229Z,17.21
2023-03-24T09:31:54.007Z,17.16
2023-03-24T09:34:23.658Z,17.17
2023-03-24T09:36:53.555Z,17.17
2023-03-24T09:39:22.821Z,17.19
2023-03-24T09:41:52.203Z,17.19
2023-03-24T09:44:29.989Z,17.19
2023-03-24T09:47:05.008Z,17.17
2023-03-24T09:49:37.084Z,17.17
2023-03-24T09:52:08.971Z,17.16
2023-03-24T09:54:41.737Z,17.16
2023-03-24T09:57:32.517Z,17.17
2023-03-24T10:00:02.217Z,17.16
2023-03-24T10:02:33.409Z,17.15
2023-03-24T10:05:02.841Z,17.23
2023-03-24T10:07:40.666Z,17.24
2023-03-24T10:10:18.950Z,17.24
2023-03-24T10:12:50.329Z,17.26
2023-03-24T10:15:37.150Z,17.24
2023-03-24T10:18:15.583Z,17.24
2023-03-24T10:20:56.493Z,17.22
2023-03-24T10:23:29.028Z,17.23
2023-03-24T10:26:16.469Z,17.24
2023-03-24T10:29:06.289Z,17.23
2023-03-24T10:31:36.772Z,17.25
2023-03-24T10:34:07.152Z,17.24
2023-03-24T10:36:38.136Z,17.26
2023-03-24T10:39:18.546Z,17.25
2023-03-24T10:41:41.417Z,17.25
2023-03-24T10:44:12.233Z,17.19
2023-03-24T10:46:47.354Z,17.29
2023-03-24T10:49:22.026Z,17.29
2023-03-24T10:51:55.421Z,17.30
2023-03-24T10:54:27.571Z,17.32
2023-03-24T10:57:06.350Z,17.32
2023-03-24T10:59:39.732Z,17.30
2023-03-24T11:02:18.033Z,17.29
2023-03-24T11:04:59.269Z,17.27
2023-03-24T11:07:39.432Z,17.26
2023-03-24T11:10:18.820Z,17.25
2023-03-24T11:13:02.130Z,17.23
2023-03-24T11:15:33.040Z,17.23
2023-03-24T11:18:18.072Z,17.23
2023-03-24T11:20:53.772Z,17.24
2023-03-24T11:23:40.678Z,17.22
2023-03-24T11:26:31.132Z,17.24
2023-03-24T11:29:08.160Z,17.23
2023-03-24T11:31:39.305Z,17.20
2023-03-24T11:34:20.826Z,17.27
2023-03-24T11:37:09.314Z,17.31
2023-03-24T11:39:38.743Z,17.47
2023-03-24T11:42:13.778Z,17.47
2023-03-24T11:44:49.795Z,17.42
2023-03-24T11:47:37.481Z,17.44
2023-03-24T11:50:10.263Z,17.45
2023-03-24T11:52:58.993Z,17.53
2023-03-24T11:55:54.239Z,17.51
2023-03-24T11:58:38.014Z,17.57
2023-03-24T12:01:22.971Z,17.58
2023-03-24T12:04:13.578Z,17.62
2023-03-24T12:06:58.268Z,17.69
2023-03-24T12:09:33.524Z,17.69
2023-03-24T12:12:11.942Z,17.72
2023-03-24T12:14:59.445Z,17.79
2023-03-24T12:17:32.101Z,17.86
2023-03-24T12:20:11.355Z,17.87
2023-03-24T12:23:11.208Z,17.86
2023-03-24T12:26:01.627Z,17.92
2023-03-24T12:28:55.671Z,17.87
2023-03-24T12:31:43.110Z,17.86
2023-03-24T12:34:42.419Z,17.85
2023-03-24T12:37:14.958Z,17.80
2023-03-24T12:39:48.306Z,17.78
2023-03-24T12:42:19.090Z,17.76
2023-03-24T12:45:03.452Z,17.72
2023-03-24T12:48:01.551Z,17.72
2023-03-24T12:50:43.238Z,17.70
2023-03-24T12:53:28.379Z,17.68
2023-03-24T12:56:01.549Z,17.69
2023-03-24T12:58:43.377Z,17.71
2023-03-24T13:01:18.835Z,17.72
2023-03-24T13:03:51.837Z,17.72
2023-03-24T13:06:30.748Z,17.72
2023-03-24T13:09:06.095Z,17.70
2023-03-24T13:11:38.537Z,17.70
2023-03-24T13:14:11.371Z,17.70
2023-03-24T13:16:41.817Z,17.69
2023-03-24T13:19:17.193Z,17.68
2023-03-24T13:21:46.935Z,17.66
2023-03-24T13:24:17.062Z,17.66
2023-03-24T13:26:55.608Z,17.65
2023-03-24T13:29:38.422Z,17.65
2023-03-24T13:32:04.693Z,17.62
2023-03-24T13:34:40.005Z,17.62
2023-03-24T13:37:24.290Z,17.58
2023-03-24T13:39:57.038Z,17.60
2023-03-24T13:42:34.809Z,17.53
2023-03-24T13:45:06.317Z,17.55
2023-03-24T13:47:57.866Z,17.52
2023-03-24T13:50:27.399Z,17.53
2023-03-24T13:52:57.051Z,17.55
2023-03-24T13:55:30.234Z,17.55
2023-03-24T13:58:01.967Z,17.64
2023-03-24T14:00:31.680Z,17.65
2023-03-24T14:03:17.214Z,17.65
2023-03-24T14:06:05.436Z,17.63
2023-03-24T14:08:51.084Z,17.62
2023-03-24T14:11:39.050Z,17.60
2023-03-24T14:14:17.877Z,17.59
2023-03-24T14:17:07.190Z,17.60
2023-03-24T14:19:40.623Z,17.58
2023-03-24T14:22:15.774Z,17.60
2023-03-24T14:24:47.132Z,17.60
2023-03-24T14:27:41.206Z,17.59
2023-03-24T14:30:26.141Z,17.46
2023-03-24T14:32:58.562Z,17.41
2023-03-24T14:35:45.931Z,17.42
2023-03-24T14:38:21.544Z,17.41
2023-03-24T14:40:53.752Z,17.41
2023-03-24T14:43:31.578Z,17.41
2023-03-24T14:46:06.635Z,17.41
2023-03-24T14:48:56.784Z,17.39
2023-03-24T14:51:41.483Z,17.41
2023-03-24T14:54:31.500Z,17.40
2023-03-24T14:57:00.985Z,17.41
2023-03-24T14:59:36.727Z,17.46
2023-03-24T15:02:30.206Z,17.47
2023-03-24T15:05:21.965Z,17.49
2023-03-24T15:08:08.551Z,17.50
2023-03-24T15:10:58.384Z,17.51
2023-03-24T15:13:30.625Z,17.53
2023-03-24T15:16:01.236Z,17.54
2023-03-24T15:18:31.107Z,17.52
2023-03-24T15:21:00.828Z,17.52
2023-03-24T15:23:31.241Z,17.50
2023-03-24T15:26:00.974Z,17.47
2023-03-24T15:28:31.407Z,17.48
2023-03-24T15:31:01.222Z,17.47
2023-03-24T15:33:35.153Z,17.46
2023-03-24T15:36:04.809Z,17.45
2023-03-24T15:38:35.254Z,17.45
2023-03-24T15:41:10.311Z,17.44
2023-03-24T15:43:49.432Z,17.44
2023-03-24T15:46:30.070Z,17.44
2023-03-24T15:49:00.578Z,17.45
2023-03-24T15:51:49.332Z,17.42
2023-03-24T15:54:27.394Z,17.42
2023-03-24T15:57:05.594Z,17.42
2023-03-24T15:59:37.211Z,17.41
2023-03-24T16:02:09.640Z,17.42
2023-03-24T16:04:39.379Z,17.40
2023-03-24T16:07:11.059Z,17.40
2023-03-24T16:09:40.963Z,17.39
2023-03-24T16:12:12.013Z,17.41
2023-03-24T16:14:41.718Z,17.40
2023-03-24T16:17:11.199Z,17.41
2023-03-24T16:19:40.738Z,17.40
2023-03-24T16:22:12.326Z,17.42
2023-03-24T16:24:41.817Z,17.42
2023-03-24T16:27:12.992Z,17.41
2023-03-24T16:29:43.398Z,17.40
2023-03-24T16:32:12.745Z,17.40
2023-03-24T16:34:42.310Z,17.39
2023-03-24T16:37:11.605Z,17.40
2023-03-24T16:39:40.902Z,17.40
2023-03-24T16:42:10.578Z,17.40
2023-03-24T16:44:40.153Z,17.39
2023-03-24T16:47:11.860Z,17.39
2023-03-24T16:49:41.372Z,17.39
2023-03-24T16:52:13.432Z,17.39
2023-03-24T16:54:42.697Z,17.37
2023-03-24T16:57:12.393Z,17.38
2023-03-24T16:59:41.886Z,17.36
2023-03-24T17:02:11.558Z,17.37
2023-03-24T17:04:41.315Z,17.36
2023-03-24T17:07:11.078Z,17.35
2023-03-24T17:09:40.706Z,17.36
2023-03-24T17:12:11.150Z,17.35
2023-03-24T17:14:40.442Z,17.36
2023-03-24T17:17:11.920Z,17.36
2023-03-24T17:19:43.278Z,17.35
2023-03-24T17:22:14.229Z,17.35
2023-03-24T17:24:43.801Z,17.34
2023-03-24T17:27:19.519Z,17.33
2023-03-24T17:29:49.157Z,17.35
2023-03-24T17:32:20.537Z,17.34
2023-03-24T17:34:49.748Z,17.35
2023-03-24T17:37:19.332Z,17.33
2023-03-24T17:39:48.831Z,17.33
2023-03-24T17:42:18.129Z,17.33
2023-03-24T17:44:47.402Z,17.33
2023-03-24T17:47:16.972Z,17.33
2023-03-24T17:49:46.742Z,17.33
2023-03-24T17:52:16.100Z,17.35
2023-03-24T17:54:45.979Z,17.31
2023-03-24T17:57:15.642Z,17.32
2023-03-24T17:59:45.800Z,17.31
2023-03-24T18:02:15.545Z,17.29
2023-03-24T18:04:45.161Z,17.30
2023-03-24T18:07:14.809Z,17.30
2023-03-24T18:09:44.409Z,17.31
2023-03-24T18:12:13.796Z,17.35
2023-03-24T18:14:43.162Z,17.38
2023-03-24T18:17:12.816Z,17.41
2023-03-24T18:19:43.211Z,17.43
2023-03-24T18:22:12.488Z,17.42
2023-03-24T18:24:41.999Z,17.41
2023-03-24T18:27:11.457Z,17.39
2023-03-24T18:29:41.267Z,17.39
2023-03-24T18:32:10.906Z,17.37
2023-03-24T18:34:43.035Z,17.40
2023-03-24T18:37:14.091Z,17.42
2023-03-24T18:39:43.915Z,17.37
2023-03-24T18:42:13.783Z,17.41
2023-03-24T18:44:44.805Z,17.37
2023-03-24T18:47:14.545Z,17.37
2023-03-24T18:49:44.205Z,17.33
2023-03-24T18:52:15.151Z,17.33
2023-03-24T18:54:45.363Z,17.35
2023-03-24T18:57:14.866Z,17.35
2023-03-24T18:59:44.466Z,17.37
2023-03-24T19:02:15.561Z,17.33
2023-03-24T19:04:45.432Z,17.32
2023-03-24T19:07:14.905Z,17.32
2023-03-24T19:09:44.510Z,17.33
2023-03-24T19:12:15.593Z,17.32
2023-03-24T19:14:45.192Z,17.30
2023-03-24T19:17:14.758Z,17.31
2023-03-24T19:19:44.223Z,17.29
2023-03-24T19:22:15.551Z,17.28
2023-03-24T19:24:44.913Z,17.30
2023-03-24T19:27:14.385Z,17.27
2023-03-24T19:29:44.147Z,17.28
2023-03-24T19:32:13.425Z,17.29
2023-03-24T19:34:46.134Z,17.27
2023-03-24T19:37:15.847Z,17.27
2023-03-24T19:39:46.115Z,17.28
2023-03-24T19:42:15.923Z,17.27
2023-03-24T19:44:45.516Z,17.26
2023-03-24T19:47:14.963Z,17.26
2023-03-24T19:49:45.090Z,17.26
2023-03-24T19:52:14.694Z,17.26
2023-03-24T19:54:44.248Z,17.24
2023-03-24T19:57:13.654Z,17.24
2023-03-24T19:59:43.013Z,17.25
2023-03-24T20:02:17.101Z,17.24
2023-03-24T20:04:46.843Z,17.23
2023-03-24T20:07:16.483Z,17.24
2023-03-24T20:09:45.797Z,17.24
2023-03-24T20:12:15.549Z,17.24
2023-03-24T20:14:45.892Z,17.23
2023-03-24T20:17:18.360Z,17.23
2023-03-24T20:19:48.180Z,17.22
2023-03-24T20:22:17.729Z,17.21
2023-03-24T20:24:48.198Z,17.22
2023-03-24T20:27:17.620Z,17.22
2023-03-24T20:29:47.015Z,17.19
2023-03-24T20:32:16.315Z,17.21
2023-03-24T20:34:45.777Z,17.21
2023-03-24T20:37:16.031Z,17.22
2023-03-24T20:39:45.657Z,17.19
2023-03-24T20:42:16.948Z,17.19
2023-03-24T20:44:46.311Z,17.18
2023-03-24T20:47:16.121Z,17.18
2023-03-24T20:49:45.513Z,17.20
2023-03-24T20:52:17.212Z,17.20
2023-03-24T20:54:46.598Z,17.20
2023-03-24T20:57:17.695Z,17.20
2023-03-24T20:59:48.695Z,17.29
2023-03-24T21:02:19.020Z,17.41
2023-03-24T21:04:48.509Z,17.42
2023-03-24T21:07:18.681Z,17.44
2023-03-24T21:09:48.122Z,17.45
2023-03-24T21:12:17.598Z,17.45
2023-03-24T21:14:47.461Z,17.43
2023-03-24T21:17:18.862Z,17.46
2023-03-24T21:19:48.242Z,17.43
2023-03-24T21:22:17.605Z,17.44
2023-03-24T21:24:47.503Z,17.43
2023-03-24T21:27:17.345Z,17.43
2023-03-24T21:29:47.132Z,17.44
2023-03-24T21:32:16.538Z,17.44
2023-03-24T21:34:46.724Z,17.41
2023-03-24T21:37:17.606Z,17.39
2023-03-24T21:39:47.129Z,17.36
2023-03-24T21:42:25.734Z,17.40
2023-03-24T21:44:57.716Z,17.38
2023-03-24T21:47:35.104Z,17.35
2023-03-24T21:50:12.390Z,17.31
2023-03-24T21:52:48.365Z,17.32
2023-03-24T21:55:30.850Z,17.33
2023-03-24T21:58:06.913Z,17.33
2023-03-24T22:00:41.168Z,17.29
2023-03-24T22:03:12.684Z,17.30
2023-03-24T22:05:45.158Z,17.29
2023-03-24T22:08:19.277Z,17.31
2023-03-24T22:10:56.706Z,17.29
2023-03-24T22:13:38.329Z,17.27
2023-03-24T22:16:11.845Z,17.27
2023-03-24T22:18:41.978Z,17.24
2023-03-24T22:21:12.497Z,17.26
2023-03-24T22:23:42.945Z,17.26
2023-03-24T22:26:19.727Z,17.25
2023-03-24T22:28:53.500Z,17.28
2023-03-24T22:31:24.146Z,17.27
2023-03-24T22:33:53.857Z,17.25
2023-03-24T22:36:23.258Z,17.27
2023-03-24T22:38:53.477Z,17.26
2023-03-24T22:41:25.232Z,17.25
2023-03-24T22:43:54.858Z,17.22
2023-03-24T22:46:24.770Z,17.23
2023-03-24T22:48:54.098Z,17.23
2023-03-24T22:51:23.468Z,17.25
2023-03-24T22:53:53.295Z,17.21
2023-03-24T22:56:22.753Z,17.23
2023-03-24T22:58:52.473Z,17.21
2023-03-24T23:01:22.032Z,17.23
2023-03-24T23:03:51.445Z,17.22
2023-03-24T23:06:21.973Z,17.21
2023-03-24T23:08:52.957Z,17.19
2023-03-24T23:11:22.813Z,17.19
2023-03-24T23:13:52.296Z,17.21
2023-03-24T23:16:22.426Z,17.20
2023-03-24T23:18:52.070Z,17.19
2023-03-24T23:21:21.535Z,17.19
2023-03-24T23:23:51.308Z,17.20
2023-03-24T23:26:26.242Z,17.19
2023-03-24T23:28:52.325Z,17.19
2023-03-24T23:31:24.696Z,17.18
2023-03-24T23:33:56.634Z,17.19
2023-03-24T23:36:29.451Z,17.19
2023-03-24T23:38:59.005Z,17.19
2023-03-24T23:41:28.616Z,17.20
2023-03-24T23:44:00.698Z,17.17
2023-03-24T23:46:33.183Z,17.18
2023-03-24T23:49:02.646Z,17.19
2023-03-24T23:51:31.976Z,17.17
2023-03-24T23:54:01.592Z,17.18
2023-03-24T23:56:32.933Z,17.18
2023-03-24T23:59:03.027Z,17.18
